Time;durP1;ratioP1;P1;durP2;ratioP2;P2;SDS_P1;SDS_P2;PMS_P1;PMS_P2;Temp;Humidity;BMP_temperature;BMP_pressure;BME280_temperature;BME280_humidity;BME280_pressure;Samples;Min_cycle;Max_cycle;Signal;HPM_P1;HPM_P2
2021/04/02 00:04:08;;;;;;;0.20;0.20;;;13.10;63.90;;;;;;20903191;28;20041;-76
2021/04/02 00:14:09;;;;;;;0.10;0.10;;;13.10;63.90;;;;;;20887340;28;20052;-75
2021/04/02 00:24:10;;;;;;;0.20;0.20;;;13.10;63.90;;;;;;20885251;28;20041;-75
2021/04/02 00:34:11;;;;;;;0.38;0.20;;;13.10;63.90;;;;;;20902383;28;20116;-75
2021/04/02 00:44:12;;;;;;;0.40;0.40;;;13.10;63.80;;;;;;20899526;28;20562;-75
2021/04/02 00:54:12;;;;;;;0.47;0.47;;;13.00;63.70;;;;;;20882532;28;20280;-77
2021/04/02 01:04:15;;;;;;;0.13;0.13;;;13.00;63.60;;;;;;20914930;28;20650;-76
2021/04/02 01:14:18;;;;;;;0.45;0.25;;;13.00;63.60;;;;;;20897271;28;20534;-76
2021/04/02 01:24:21;;;;;;;0.20;0.20;;;13.00;63.50;;;;;;20881435;28;20051;-77
2021/04/02 01:34:34;;;;;;;0.25;0.20;;;13.00;63.50;;;;;;20913072;28;20040;-76
2021/04/02 01:44:38;;;;;;;0.28;0.28;;;12.90;63.20;;;;;;20911040;28;20049;-77
2021/04/02 01:54:42;;;;;;;0.40;0.30;;;12.90;63.30;;;;;;20879727;28;20040;-76
2021/04/02 02:04:47;;;;;;;0.10;0.10;;;12.90;63.30;;;;;;20894378;28;20124;-76
2021/04/02 02:14:53;;;;;;;0.20;0.10;;;12.90;63.30;;;;;;20893923;28;20033;-76
2021/04/02 02:25:05;;;;;;;0.10;0.10;;;12.90;63.30;;;;;;20878865;28;20376;-76
2021/04/02 02:35:07;;;;;;;0.13;0.13;;;12.90;63.40;;;;;;20891613;28;20461;-78
2021/04/02 02:45:10;;;;;;;0.25;0.20;;;12.80;63.30;;;;;;20890750;28;20376;-76
2021/04/02 02:55:15;;;;;;;0.57;0.25;;;12.90;63.30;;;;;;20873811;28;20044;-76
2021/04/02 03:05:18;;;;;;;0.80;0.10;;;12.80;63.20;;;;;;20889432;28;20055;-77
2021/04/02 03:15:19;;;;;;;0.20;0.10;;;12.80;63.20;;;;;;20871825;28;20036;-76
2021/04/02 03:25:22;;;;;;;0.10;0.10;;;12.80;63.20;;;;;;20888009;28;20478;-77
2021/04/02 03:35:32;;;;;;;0.17;0.10;;;12.80;63.20;;;;;;20903779;28;20044;-77
2021/04/02 03:45:35;;;;;;;0.17;0.15;;;12.80;63.20;;;;;;20888043;28;20422;-76
2021/04/02 03:55:39;;;;;;;0.10;0.10;;;12.80;63.20;;;;;;20870577;28;20037;-77
2021/04/02 04:05:43;;;;;;;0.25;0.25;;;12.70;63.10;;;;;;20869934;28;20128;-77
2021/04/02 04:15:45;;;;;;;0.10;0.10;;;12.70;63.00;;;;;;20871508;28;20060;-77
2021/04/02 04:25:49;;;;;;;0.10;0.10;;;12.70;63.00;;;;;;20901660;28;20140;-76
2021/04/02 04:35:50;;;;;;;0.40;0.20;;;12.70;63.00;;;;;;20901749;28;20118;-77
2021/04/02 04:45:53;;;;;;;0.20;0.20;;;12.70;63.10;;;;;;20896374;28;20159;-76
2021/04/02 04:55:57;;;;;;;2.83;0.30;;;12.70;63.10;;;;;;20883177;28;20065;-76
2021/04/02 05:05:58;;;;;;;0.00;0.00;;;12.70;63.10;;;;;;20914449;28;20387;-77
2021/04/02 05:15:59;;;;;;;0.10;0.10;;;12.60;63.00;;;;;;20881077;28;20033;-76
2021/04/02 05:25:59;;;;;;;0.38;0.25;;;12.60;62.90;;;;;;20888569;28;20128;-76
2021/04/02 05:36:01;;;;;;;0.10;0.10;;;12.60;63.00;;;;;;20876891;28;20036;-75
2021/04/02 05:46:03;;;;;;;0.20;0.20;;;12.60;62.90;;;;;;20895529;28;20037;-75
2021/04/02 05:56:06;;;;;;;0.10;0.10;;;12.50;62.90;;;;;;20895279;28;20074;-76
2021/04/02 06:06:11;;;;;;;1.38;0.20;;;12.60;62.90;;;;;;20893989;28;20052;-76
2021/04/02 06:16:11;;;;;;;0.10;0.10;;;12.50;62.90;;;;;;20909625;28;20037;-75
2021/04/02 06:26:13;;;;;;;0.10;0.10;;;12.50;62.90;;;;;;20875656;28;20045;-76
2021/04/02 06:36:18;;;;;;;0.65;0.20;;;12.50;62.90;;;;;;20875235;28;20091;-78
2021/04/02 06:46:23;;;;;;;1.42;0.38;;;12.50;63.00;;;;;;20886009;28;20033;-76
2021/04/02 06:56:26;;;;;;;0.20;0.20;;;12.50;62.90;;;;;;20807825;28;20499;-74
2021/04/02 07:06:29;;;;;;;0.00;0.00;;;12.40;62.70;;;;;;20844362;28;20204;-82
2021/04/02 07:16:31;;;;;;;0.30;0.20;;;12.40;62.60;;;;;;20813132;28;20029;-81
2021/04/02 07:26:33;;;;;;;0.10;0.10;;;12.40;62.60;;;;;;20792269;28;20045;-81
2021/04/02 07:36:37;;;;;;;0.30;0.20;;;12.40;62.40;;;;;;20789734;28;20434;-74
2021/04/02 07:46:38;;;;;;;0.10;0.10;;;12.40;62.20;;;;;;20863084;28;20041;-77
2021/04/02 07:56:40;;;;;;;1.30;0.20;;;12.40;62.10;;;;;;20904937;28;20037;-78
2021/04/02 08:06:42;;;;;;;0.13;0.13;;;12.40;62.00;;;;;;20870631;28;20541;-75
2021/04/02 08:16:43;;;;;;;0.10;0.10;;;12.40;61.90;;;;;;20874407;28;20029;-76
2021/04/02 08:26:44;;;;;;;0.20;0.17;;;12.40;61.90;;;;;;21299097;22;20410;-74
2021/04/02 08:36:46;;;;;;;0.00;0.00;;;12.50;62.00;;;;;;20884799;28;20066;-75
2021/04/02 08:46:48;;;;;;;0.10;0.10;;;12.50;61.90;;;;;;20900681;28;20041;-75
2021/04/02 08:56:49;;;;;;;0.13;0.13;;;12.50;61.70;;;;;;20883078;28;20498;-74
2021/04/02 09:06:50;;;;;;;0.10;0.10;;;12.50;61.70;;;;;;20882101;28;20449;-74
2021/04/02 09:16:54;;;;;;;0.45;0.38;;;12.50;61.60;;;;;;20881441;28;20068;-75
2021/04/02 09:26:55;;;;;;;1.25;0.60;;;12.40;61.40;;;;;;20879984;28;20056;-74
2021/04/02 09:36:55;;;;;;;0.32;0.30;;;12.40;61.40;;;;;;20863515;28;20041;-75
2021/04/02 09:47:06;;;;;;;5.30;0.50;;;12.50;61.40;;;;;;20879555;28;20402;-79
2021/04/02 09:57:10;;;;;;;0.60;0.40;;;12.40;61.10;;;;;;20876667;28;20052;-78
2021/04/02 10:07:11;;;;;;;0.98;0.40;;;12.50;61.40;;;;;;20882845;28;20044;-77
2021/04/02 10:17:12;;;;;;;0.40;0.30;;;12.40;61.30;;;;;;20895631;28;20478;-80
2021/04/02 10:27:14;;;;;;;0.10;0.10;;;12.40;61.20;;;;;;20891964;28;20303;-83
2021/04/02 10:37:16;;;;;;;2.78;0.50;;;12.30;61.20;;;;;;20911367;28;20037;-78
2021/04/02 10:47:17;;;;;;;0.40;0.40;;;12.40;61.20;;;;;;20890845;28;20040;-84
2021/04/02 10:57:18;;;;;;;0.13;0.10;;;12.30;61.30;;;;;;20814955;28;20044;-80
2021/04/02 11:07:19;;;;;;;0.85;0.52;;;12.30;61.20;;;;;;20795682;28;20034;-79
2021/04/02 11:17:20;;;;;;;3.05;0.98;;;12.30;61.20;;;;;;20814017;28;20384;-74
2021/04/02 11:27:21;;;;;;;0.10;0.10;;;12.30;61.10;;;;;;20806488;28;20061;-75
2021/04/02 11:37:23;;;;;;;3.30;0.30;;;12.20;61.00;;;;;;20811699;28;20046;-77
2021/04/02 11:47:23;;;;;;;1.42;0.30;;;12.20;60.80;;;;;;20854016;28;20415;-76
2021/04/02 11:57:25;;;;;;;0.20;0.20;;;12.20;60.70;;;;;;20902684;28;20037;-80
2021/04/02 12:07:28;;;;;;;0.43;0.30;;;12.20;60.60;;;;;;20888497;28;20056;-79
2021/04/02 12:17:28;;;;;;;0.43;0.40;;;12.20;60.50;;;;;;20874085;28;20502;-78
2021/04/02 12:27:29;;;;;;;0.10;0.10;;;12.20;60.50;;;;;;20889324;28;20299;-80
2021/04/02 12:37:32;;;;;;;1.10;0.52;;;12.20;60.40;;;;;;20889120;28;20116;-78
2021/04/02 12:47:32;;;;;;;0.35;0.20;;;12.20;60.40;;;;;;20887300;28;20040;-74
2021/04/02 12:57:33;;;;;;;1.02;0.60;;;12.10;60.20;;;;;;20885186;28;20041;-74
2021/04/02 13:07:33;;;;;;;1.17;0.38;;;12.10;60.10;;;;;;20879026;28;20131;-77
2021/04/02 13:17:34;;;;;;;0.38;0.38;;;12.10;60.10;;;;;;20897616;28;20129;-75
2021/04/02 13:27:36;;;;;;;2.17;0.50;;;12.10;60.00;;;;;;20897065;28;20048;-74
2021/04/02 13:37:37;;;;;;;3.42;0.85;;;12.10;59.90;;;;;;20896332;28;20068;-75
2021/04/02 13:47:37;;;;;;;1.13;0.73;;;12.10;59.80;;;;;;20879171;28;20043;-75
2021/04/02 13:57:38;;;;;;;1.20;0.63;;;12.10;59.90;;;;;;20894833;28;20036;-75
2021/04/02 14:07:39;;;;;;;0.73;0.60;;;12.10;59.80;;;;;;20896161;28;20460;-75
2021/04/02 14:17:40;;;;;;;1.38;0.52;;;12.00;59.80;;;;;;20894375;28;20320;-75
2021/04/02 14:27:41;;;;;;;5.80;0.47;;;12.00;59.70;;;;;;20894806;28;20093;-77
2021/04/02 14:37:41;;;;;;;0.35;0.35;;;11.90;59.50;;;;;;20893644;28;20116;-78
2021/04/02 14:47:42;;;;;;;0.30;0.30;;;12.00;59.30;;;;;;20902561;28;20029;-79
2021/04/02 14:57:43;;;;;;;1.35;0.70;;;12.00;59.30;;;;;;20814219;28;20068;-74
2021/04/02 15:07:44;;;;;;;5.57;0.60;;;12.00;59.20;;;;;;20897644;28;20035;-73
2021/04/02 15:17:45;;;;;;;6.13;0.40;;;12.00;59.20;;;;;;20905205;28;20523;-75
2021/04/02 15:27:46;;;;;;;0.60;0.35;;;12.00;59.20;;;;;;20869624;28;20045;-72
2021/04/02 15:37:48;;;;;;;2.30;0.98;;;12.00;59.30;;;;;;20870190;28;20075;-73
2021/04/02 15:47:49;;;;;;;0.63;0.50;;;11.90;59.30;;;;;;20835884;28;20037;-73
2021/04/02 15:57:50;;;;;;;0.77;0.35;;;11.90;59.30;;;;;;20881897;28;20047;-73
2021/04/02 16:07:54;;;;;;;0.73;0.40;;;11.90;59.30;;;;;;20856066;28;20052;-72
2021/04/02 16:17:56;;;;;;;0.52;0.30;;;11.90;59.30;;;;;;20873608;28;20048;-76
2021/04/02 16:27:57;;;;;;;2.53;0.73;;;11.90;59.30;;;;;;20865370;28;20045;-75
2021/04/02 16:38:00;;;;;;;0.90;0.22;;;11.80;59.20;;;;;;20879646;28;20505;-75
2021/04/02 16:48:01;;;;;;;2.08;0.82;;;11.80;59.30;;;;;;20864825;28;20032;-75
2021/04/02 16:58:01;;;;;;;0.68;0.32;;;11.80;59.30;;;;;;20882445;28;20059;-76
2021/04/02 17:08:03;;;;;;;0.40;0.30;;;11.80;59.40;;;;;;20865318;28;20120;-76
2021/04/02 17:18:04;;;;;;;0.15;0.15;;;11.80;59.40;;;;;;20818787;28;20111;-74
2021/04/02 17:28:05;;;;;;;0.30;0.30;;;11.80;59.50;;;;;;20797858;28;20061;-75
2021/04/02 17:38:14;;;;;;;3.97;0.47;;;11.80;59.60;;;;;;20814226;28;20021;-75
2021/04/02 17:48:21;;;;;;;0.40;0.30;;;11.80;59.70;;;;;;20795188;28;20041;-75
2021/04/02 17:58:22;;;;;;;2.45;0.38;;;11.80;59.70;;;;;;20829594;28;20044;-76
2021/04/02 18:08:23;;;;;;;0.70;0.20;;;11.70;59.80;;;;;;20815570;28;20029;-75
2021/04/02 18:18:23;;;;;;;1.27;0.20;;;11.80;60.00;;;;;;20811065;28;20033;-75
2021/04/02 18:28:26;;;;;;;0.03;0.03;;;11.70;60.00;;;;;;20810626;28;20311;-76
2021/04/02 18:38:27;;;;;;;0.10;0.10;;;11.70;60.10;;;;;;20833480;28;20482;-76
2021/04/02 18:48:28;;;;;;;0.20;0.20;;;11.70;60.20;;;;;;20894082;28;20036;-77
2021/04/02 18:58:29;;;;;;;0.20;0.20;;;11.70;60.30;;;;;;20830993;28;20046;-76
2021/04/02 19:08:29;;;;;;;0.35;0.35;;;11.70;60.50;;;;;;20793468;28;20030;-76
2021/04/02 19:18:31;;;;;;;0.38;0.30;;;11.70;60.60;;;;;;20775094;28;20778;-75
2021/04/02 19:28:32;;;;;;;2.55;0.32;;;11.70;60.70;;;;;;20791810;28;20049;-77
2021/04/02 19:38:32;;;;;;;0.40;0.25;;;11.70;60.70;;;;;;20836988;28;20403;-77
2021/04/02 19:48:33;;;;;;;0.73;0.22;;;11.70;60.90;;;;;;20806774;28;20486;-76
2021/04/02 19:58:34;;;;;;;0.82;0.43;;;11.60;60.90;;;;;;20842746;28;20040;-79
2021/04/02 20:08:34;;;;;;;0.47;0.20;;;11.60;61.00;;;;;;20888306;28;20040;-77
2021/04/02 20:18:35;;;;;;;0.30;0.30;;;11.60;61.10;;;;;;20904834;28;20040;-78
2021/04/02 20:28:36;;;;;;;3.85;1.35;;;11.60;61.20;;;;;;20870626;28;20304;-76
2021/04/02 20:38:37;;;;;;;3.30;0.60;;;11.60;61.20;;;;;;20804215;28;20279;-77
2021/04/02 20:48:37;;;;;;;0.50;0.38;;;11.60;62.10;;;;;;20874079;28;20032;-77
2021/04/02 20:58:38;;;;;;;0.75;0.30;;;11.50;61.30;;;;;;20884210;28;20041;-77
2021/04/02 21:08:39;;;;;;;0.30;0.30;;;11.60;61.40;;;;;;20900676;28;20609;-77
2021/04/02 21:18:39;;;;;;;6.35;0.77;;;11.60;61.50;;;;;;20899950;28;20291;-76
2021/04/02 21:28:40;;;;;;;1.70;0.47;;;11.60;61.50;;;;;;20897877;28;20096;-76
2021/04/02 21:38:41;;;;;;;1.45;0.85;;;11.50;61.50;;;;;;20856932;28;20044;-77
2021/04/02 21:48:42;;;;;;;0.65;0.60;;;11.50;61.60;;;;;;20831367;28;20037;-76
2021/04/02 21:58:42;;;;;;;1.45;0.90;;;11.50;61.60;;;;;;20814223;28;20471;-77
2021/04/02 22:08:44;;;;;;;0.80;0.77;;;11.50;61.60;;;;;;20813464;28;20034;-76
2021/04/02 22:18:45;;;;;;;5.90;0.80;;;11.50;61.70;;;;;;20796239;28;20033;-76
2021/04/02 22:28:46;;;;;;;4.47;0.50;;;11.50;61.70;;;;;;20795319;28;20053;-76
2021/04/02 22:38:47;;;;;;;3.67;0.65;;;11.50;61.70;;;;;;20794503;28;20319;-76
2021/04/02 22:48:47;;;;;;;3.80;1.58;;;11.50;61.70;;;;;;20810030;28;20511;-75
2021/04/02 22:58:48;;;;;;;5.27;0.93;;;11.40;61.70;;;;;;20793075;28;20057;-74
2021/04/02 23:08:51;;;;;;;0.75;0.73;;;11.50;61.80;;;;;;20792010;28;20291;-74
2021/04/02 23:18:51;;;;;;;1.92;0.75;;;11.40;61.80;;;;;;20775297;28;20037;-79
2021/04/02 23:28:53;;;;;;;0.80;0.45;;;11.40;61.90;;;;;;20791100;28;20041;-75
2021/04/02 23:38:54;;;;;;;0.80;0.55;;;11.40;62.00;;;;;;20798774;28;20403;-75
2021/04/02 23:48:55;;;;;;;2.35;1.17;;;11.40;62.00;;;;;;20803930;28;20479;-75
2021/04/02 23:58:55;;;;;;;1.40;0.40;;;11.40;62.00;;;;;;20790211;28;20037;-76
